LICCLGKR

Guest
Details From LICC - Catania Fontanarossa
To LGKR - IOANNIS KAPODISTRIAS INTL
Flight Number -
Tags generated
Created
Modified
Stats Distance 272 nm / 503 km
Max Altitude 35,000 ft / 10,668 m
Waypoints 5
Social Downloads 1
Likes 0
Share

Download

Looking for another format? Having issues loading an existing format? Contact us
Advertisement - Login to hide

Notes

Basic altitude profile: - Ascent Rate: 2500ft/min - Ascent Speed: 250kts - Cruise Altitude: 310000ft - Cruise Speed: 420kts - Descent Rate: 1500ft/min - Descent Speed: 250kts Options: - Use NATs: yes - Use PACOTS: yes - Use low airways: yes - Use high airways: yes

Route

LICC CDC L869 CRN G12 GEMVI LGKR

ID Type Via Altitude (ft/m) Position (lat/lon) Dist (leg/tot) Name
O LICC APT - 0 / 0 37.46678 / 15.06640 - / 0 nm Catania Fontanarossa
CDC VOR - 35,000 / 10,668 38.75583 / 16.36917 98 / 98 nm CARAFFA DI CATANZARO VORTAC
CRN VOR L869 (AWY-LO) 29,200 / 8,900 38.99611 / 17.08305 36 / 135 nm CROTONE VOR-DME
GEMVI FIX G12 (AWY-LO) 21,800 / 6,645 39.11278 / 17.80528 34 / 169 nm
O LGKR APT - 0 / 0 39.60178 / 19.91191 102 / 271 nm IOANNIS KAPODISTRIAS INTL

Altitude Profile

Advertisement - Login to hide

Weather


0- 5 10 15 20 25 30 35+ Temperature / °C

Clouds and Precipitation
Forecast for 2020-08-11 06:00 UTC. Updated 3 hours ago

Ground ~20,000 ft ~40,000 ft Winds

LICC

Details ICAO LICC (CTA)
Name Catania-Fontanarossa "Vincenzo Bellini"
Region Italy
Timezone Europe/Rome (UTC+2.0)
Stats Elevation 39 ft / 12 m (AMSL)
Location 37.466800° 15.066400°
Runways 1
Magnetic Variation 3.472° E

METAR

LICC 110620Z 22004KT CAVOK 27/18 Q1015

Decode

TAF

TAF LICC 110500Z 1106/1206 VRB05KT 9999 SCT030 BECMG 1108/1110 08012KT TEMPO 1113/1117 SHRA BECMG 1118/1120 VRB05KT

Decode

Departure Runways

ID Width Length Bearing (true/mag) Surface Threshold Overrun Markings Lighting
08 148 ft / 45 m 8,000 ft / 2,438 m 83.93° / 80.46° ASPHALT 308 ft / 94 m 0 ft / 0 m PREC-APP CENTERLINE EDGE THRESHOLD MALSF REIL-OMNI
26 148 ft / 45 m 8,000 ft / 2,438 m 263.95° / 260.48° ASPHALT 285 ft / 87 m 0 ft / 0 m PREC-APP CENTERLINE EDGE THRESHOLD MALSF REIL-OMNI

LGKR

Details ICAO LGKR (CFU)
Name IOANNIS KAPODISTRIAS INTL
Region Greece
Timezone Europe/Athens (UTC+3.0)
Stats Elevation 0 ft / 0 m (AMSL)
Location 39.602300° 19.912000°
Runways 1
Magnetic Variation 4.363° E

METAR

LGKR 110620Z /////KT CAVOK 26/20 Q1014 NOSIG

Decode

TAF

TAF LGKR 110500Z 1106/1206 33006KT 9999 FEW030

Decode

Destination Runways

ID Width Length Bearing (true/mag) Surface Threshold Overrun Markings Lighting
17 148 ft / 45 m 7,604 ft / 2,318 m 168.78° / 164.42° ASPHALT 1,342 ft / 409 m 0 ft / 0 m PREC-APP EDGE THRESHOLD ALSF-I
35 148 ft / 45 m 7,604 ft / 2,318 m 348.79° / 344.42° ASPHALT 0 ft / 0 m 0 ft / 0 m PREC-APP EDGE THRESHOLD SALS REIL-OMNI

Popular Alternatives